createdAt,value
2022-10-11T00:00:47.262Z,12.13
2022-10-11T00:01:47.274Z,12.04
2022-10-11T00:02:47.180Z,12.07
2022-10-11T00:03:47.181Z,12.12
2022-10-11T00:04:47.193Z,12.07
2022-10-11T00:05:47.160Z,12.12
2022-10-11T00:06:47.151Z,12.10
2022-10-11T00:07:47.139Z,12.10
2022-10-11T00:08:47.153Z,12.07
2022-10-11T00:09:47.147Z,12.13
2022-10-11T00:10:47.117Z,12.06
2022-10-11T00:11:47.110Z,12.07
2022-10-11T00:12:47.116Z,12.06
2022-10-11T00:13:47.102Z,12.10
2022-10-11T00:14:47.102Z,12.13
2022-10-11T00:15:47.109Z,12.09
2022-10-11T00:16:47.073Z,12.09
2022-10-11T00:17:47.063Z,12.13
2022-10-11T00:18:47.068Z,12.00
2022-10-11T00:19:47.062Z,11.94
2022-10-11T00:20:47.068Z,12.03
2022-10-11T00:21:47.041Z,11.87
2022-10-11T00:22:47.033Z,11.90
2022-10-11T00:23:47.025Z,11.86
2022-10-11T00:24:47.012Z,11.73
2022-10-11T00:25:47.008Z,11.84
2022-10-11T00:26:47.229Z,11.70
2022-10-11T00:27:46.993Z,11.75
2022-10-11T00:28:47.025Z,11.83
2022-10-11T00:29:46.979Z,11.75
2022-10-11T00:30:46.975Z,11.80
2022-10-11T00:31:46.980Z,11.86
2022-10-11T00:32:46.959Z,11.77
2022-10-11T00:33:46.968Z,11.81
2022-10-11T00:34:46.948Z,11.69
2022-10-11T00:35:46.937Z,11.63
2022-10-11T00:36:46.941Z,11.55
2022-10-11T00:37:46.924Z,11.62
2022-10-11T00:38:46.911Z,11.68
2022-10-11T00:39:46.919Z,11.65
2022-10-11T00:40:46.903Z,11.70
2022-10-11T00:41:46.893Z,11.66
2022-10-11T00:42:46.882Z,11.72
2022-10-11T00:43:46.893Z,11.66
2022-10-11T00:44:46.873Z,11.65
2022-10-11T00:45:46.861Z,11.48
2022-10-11T00:46:46.851Z,11.50
2022-10-11T00:47:46.857Z,11.52
2022-10-11T00:48:46.867Z,11.33
2022-10-11T00:49:46.833Z,11.36
2022-10-11T00:50:46.828Z,11.29
2022-10-11T00:51:46.817Z,11.29
2022-10-11T00:52:46.811Z,11.25
2022-10-11T00:53:46.816Z,11.25
2022-10-11T00:54:46.797Z,11.26
2022-10-11T00:55:46.794Z,11.33
2022-10-11T00:56:46.803Z,11.27
2022-10-11T00:57:46.781Z,11.22
2022-10-11T00:58:46.764Z,11.18
2022-10-11T00:59:46.755Z,11.11
2022-10-11T01:00:46.754Z,11.14
2022-10-11T01:01:46.784Z,11.08
2022-10-11T01:02:46.754Z,11.08
2022-10-11T01:03:46.731Z,11.14
2022-10-11T01:04:46.749Z,11.07
2022-10-11T01:05:46.720Z,11.10
2022-10-11T01:06:46.724Z,11.19
2022-10-11T01:07:46.716Z,11.17
2022-10-11T01:08:46.705Z,11.08
2022-10-11T01:09:46.682Z,11.10
2022-10-11T01:10:46.704Z,11.05
2022-10-11T01:11:46.672Z,11.04
2022-10-11T01:12:46.678Z,11.08
2022-10-11T01:13:46.659Z,11.00
2022-10-11T01:14:46.654Z,11.11
2022-10-11T01:15:46.736Z,11.12
2022-10-11T01:16:46.648Z,11.05
2022-10-11T01:17:46.628Z,11.04
2022-10-11T01:18:46.622Z,11.05
2022-10-11T01:19:46.622Z,10.97
2022-10-11T01:20:46.616Z,11.00
2022-10-11T01:21:46.625Z,10.84
2022-10-11T01:22:46.593Z,10.82
2022-10-11T01:23:46.588Z,10.75
2022-10-11T01:24:46.596Z,10.89
2022-10-11T01:25:46.568Z,10.82
2022-10-11T01:26:46.558Z,10.76
2022-10-11T01:27:46.548Z,10.68
2022-10-11T01:28:46.743Z,10.69
2022-10-11T01:29:46.533Z,10.68
2022-10-11T01:30:46.536Z,10.67
2022-10-11T01:31:46.524Z,10.71
2022-10-11T01:32:46.515Z,10.67
2022-10-11T01:33:46.530Z,10.54
2022-10-11T01:34:46.501Z,10.53
2022-10-11T01:35:46.492Z,10.53
2022-10-11T01:36:46.484Z,10.48
2022-10-11T01:37:46.473Z,10.51
2022-10-11T01:38:46.468Z,10.42
2022-10-11T01:39:46.475Z,10.46
2022-10-11T01:40:46.453Z,10.34
2022-10-11T01:41:46.442Z,10.35
2022-10-11T01:42:46.444Z,10.34
2022-10-11T01:43:46.425Z,10.34
2022-10-11T01:44:46.438Z,10.34
2022-10-11T01:45:46.417Z,10.19
2022-10-11T01:46:46.411Z,10.33
2022-10-11T01:47:46.400Z,10.30
2022-10-11T01:48:46.398Z,10.20
2022-10-11T01:49:46.398Z,10.19
2022-10-11T01:50:46.403Z,10.10
2022-10-11T01:51:47.488Z,10.10
2022-10-11T01:52:46.371Z,10.09
2022-10-11T01:53:46.374Z,10.10
2022-10-11T01:55:08.161Z,10.10
2022-10-11T01:55:47.346Z,10.07
2022-10-11T01:56:46.339Z,10.09
2022-10-11T01:57:46.325Z,10.10
2022-10-11T01:58:46.315Z,10.05
2022-10-11T01:59:46.333Z,10.05
2022-10-11T02:00:46.313Z,10.04
2022-10-11T02:01:46.373Z,10.02
2022-10-11T02:02:46.296Z,9.91
2022-10-11T02:03:46.301Z,9.89
2022-10-11T02:04:46.276Z,9.84
2022-10-11T02:05:46.265Z,9.79
2022-10-11T02:06:46.260Z,9.83
2022-10-11T02:07:46.270Z,9.87
2022-10-11T02:08:46.277Z,9.73
2022-10-11T02:09:46.252Z,9.69
2022-10-11T02:10:46.225Z,9.77
2022-10-11T02:11:46.222Z,9.68
2022-10-11T02:12:46.225Z,9.83
2022-10-11T02:13:46.206Z,9.73
2022-10-11T02:14:46.200Z,9.65
2022-10-11T02:15:46.207Z,9.66
2022-10-11T02:16:46.188Z,9.64
2022-10-11T02:17:46.178Z,9.56
2022-10-11T02:18:46.172Z,9.47
2022-10-11T02:19:46.163Z,9.47
2022-10-11T02:20:46.167Z,9.39
2022-10-11T02:21:46.142Z,9.37
2022-10-11T02:22:46.137Z,9.36
2022-10-11T02:23:46.136Z,9.22
2022-10-11T02:24:46.156Z,9.25
2022-10-11T02:25:46.118Z,9.23
2022-10-11T02:26:46.119Z,9.19
2022-10-11T02:27:46.126Z,9.16
2022-10-11T02:28:46.185Z,9.11
2022-10-11T02:29:46.105Z,9.03
2022-10-11T02:30:46.090Z,9.06
2022-10-11T02:31:46.089Z,9.00
2022-10-11T02:32:46.068Z,9.06
2022-10-11T02:33:46.055Z,9.03
2022-10-11T02:34:46.047Z,8.91
2022-10-11T02:35:46.040Z,9.04
2022-10-11T02:36:46.029Z,8.94
2022-10-11T02:37:46.041Z,8.99
2022-10-11T02:38:46.016Z,8.99
2022-10-11T02:39:46.013Z,8.92
2022-10-11T02:40:46.003Z,8.92
2022-10-11T02:41:45.997Z,8.92
2022-10-11T02:42:46.006Z,8.88
2022-10-11T02:43:45.981Z,8.82
2022-10-11T02:44:45.976Z,8.94
2022-10-11T02:45:45.989Z,8.84
2022-10-11T02:46:45.961Z,8.94
2022-10-11T02:47:45.944Z,8.85
2022-10-11T02:48:45.965Z,8.82
2022-10-11T02:49:45.944Z,8.85
2022-10-11T02:50:45.934Z,8.84
2022-10-11T02:51:45.931Z,8.82
2022-10-11T02:52:45.930Z,8.94
2022-10-11T02:53:45.913Z,8.91
2022-10-11T02:54:45.930Z,8.92
2022-10-11T02:55:45.901Z,8.99
2022-10-11T02:56:45.897Z,8.97
2022-10-11T02:57:45.888Z,8.91
2022-10-11T02:58:45.879Z,8.87
2022-10-11T02:59:45.879Z,8.88
2022-10-11T03:00:45.888Z,8.78
2022-10-11T03:01:45.916Z,8.73
2022-10-11T03:02:45.869Z,8.89
2022-10-11T03:03:45.855Z,8.81
2022-10-11T03:04:45.840Z,8.89
2022-10-11T03:05:45.831Z,8.87
2022-10-11T03:06:45.847Z,8.74
2022-10-11T03:07:45.814Z,8.73
2022-10-11T03:08:45.803Z,8.73
2022-10-11T03:09:45.806Z,8.63
2022-10-11T03:10:45.824Z,8.70
2022-10-11T03:11:45.791Z,8.81
2022-10-11T03:12:45.790Z,8.78
2022-10-11T03:13:45.771Z,8.76
2022-10-11T03:14:45.771Z,8.74
2022-10-11T03:15:45.783Z,8.79
2022-10-11T03:16:45.763Z,8.74
2022-10-11T03:17:45.749Z,8.76
2022-10-11T03:18:45.740Z,8.76
2022-10-11T03:19:45.738Z,8.71
2022-10-11T03:20:45.745Z,8.71
2022-10-11T03:21:45.722Z,8.64
2022-10-11T03:22:45.716Z,8.71
2022-10-11T03:23:45.700Z,8.73
2022-10-11T03:24:45.703Z,8.64
2022-10-11T03:25:45.710Z,8.51
2022-10-11T03:26:45.689Z,8.51
2022-10-11T03:27:45.677Z,8.51
2022-10-11T03:28:45.760Z,8.55
2022-10-11T03:29:45.661Z,8.48
2022-10-11T03:30:45.682Z,8.52
2022-10-11T03:31:45.658Z,8.44
2022-10-11T03:32:45.640Z,8.38
2022-10-11T03:33:45.632Z,8.42
2022-10-11T03:34:45.635Z,8.38
2022-10-11T03:35:45.658Z,8.44
2022-10-11T03:36:45.613Z,8.41
2022-10-11T03:37:45.634Z,8.23
2022-10-11T03:38:45.616Z,8.19
2022-10-11T03:39:45.596Z,8.23
2022-10-11T03:40:45.586Z,8.16
2022-10-11T03:41:45.582Z,8.16
2022-10-11T03:42:45.597Z,8.16
2022-10-11T03:43:45.566Z,8.12
2022-10-11T03:44:45.571Z,8.12
2022-10-11T03:45:45.575Z,8.18
2022-10-11T03:46:45.555Z,8.16
2022-10-11T03:47:45.541Z,8.19
2022-10-11T03:48:45.538Z,8.09
2022-10-11T03:49:45.524Z,8.09
2022-10-11T03:50:45.523Z,8.05
2022-10-11T03:51:45.529Z,8.15
2022-10-11T03:52:45.511Z,8.05
2022-10-11T03:53:45.498Z,8.00
2022-10-11T03:54:45.490Z,8.08
2022-10-11T03:55:45.488Z,7.97
2022-10-11T03:56:45.504Z,8.05
2022-10-11T03:57:45.499Z,7.97
2022-10-11T03:58:45.467Z,7.97
2022-10-11T03:59:45.456Z,8.03
2022-10-11T04:00:45.461Z,7.95
2022-10-11T04:01:45.473Z,7.93
2022-10-11T04:02:45.475Z,7.97
2022-10-11T04:03:45.457Z,7.83
2022-10-11T04:04:45.444Z,7.85
2022-10-11T04:05:45.425Z,7.87
2022-10-11T04:06:45.419Z,7.88
2022-10-11T04:07:45.440Z,7.85
2022-10-11T04:08:45.403Z,7.90
2022-10-11T04:09:45.391Z,7.83
2022-10-11T04:10:45.392Z,7.79
2022-10-11T04:11:45.380Z,7.73
2022-10-11T04:12:45.376Z,7.73
2022-10-11T04:13:45.389Z,7.66
2022-10-11T04:14:45.363Z,7.70
2022-10-11T04:15:45.354Z,7.70
2022-10-11T04:16:45.354Z,7.67
2022-10-11T04:17:45.370Z,7.76
2022-10-11T04:18:45.345Z,7.63
2022-10-11T04:19:45.351Z,7.72
2022-10-11T04:20:45.325Z,7.72
2022-10-11T04:21:45.319Z,7.69
2022-10-11T04:22:45.328Z,7.61
2022-10-11T04:23:45.303Z,7.61
2022-10-11T04:24:45.298Z,7.53
2022-10-11T04:25:45.307Z,7.60
2022-10-11T04:26:45.297Z,7.61
2022-10-11T04:27:45.284Z,7.45
2022-10-11T04:28:45.283Z,7.50
2022-10-11T04:29:45.262Z,7.43
2022-10-11T04:30:45.256Z,7.33
2022-10-11T04:31:45.256Z,7.35
2022-10-11T04:32:45.259Z,7.31
2022-10-11T04:33:45.235Z,7.28
2022-10-11T04:34:45.233Z,7.25
2022-10-11T04:35:45.223Z,7.15
2022-10-11T04:36:49.625Z,7.15
2022-10-11T04:37:45.203Z,7.29
2022-10-11T04:38:45.223Z,7.18
2022-10-11T04:39:45.195Z,7.13
2022-10-11T04:40:45.186Z,7.20
2022-10-11T04:41:45.176Z,7.15
2022-10-11T04:42:45.201Z,7.11
2022-10-11T04:43:45.172Z,7.14
2022-10-11T04:44:45.168Z,7.25
2022-10-11T04:45:45.158Z,7.21
2022-10-11T04:46:45.152Z,7.18
2022-10-11T04:47:45.142Z,7.18
2022-10-11T04:48:45.163Z,7.15
2022-10-11T04:49:45.144Z,7.13
2022-10-11T04:50:45.146Z,7.03
2022-10-11T04:51:45.133Z,7.00
2022-10-11T04:52:45.120Z,7.05
2022-10-11T04:53:45.115Z,7.02
2022-10-11T04:54:52.298Z,7.07
2022-10-11T04:55:45.103Z,6.96
2022-10-11T04:56:45.114Z,7.06
2022-10-11T04:57:45.088Z,7.05
2022-10-11T04:58:45.089Z,7.02
2022-10-11T04:59:49.903Z,6.92
2022-10-11T05:00:45.087Z,6.93
2022-10-11T05:01:45.103Z,7.02
2022-10-11T05:02:45.058Z,6.92
2022-10-11T05:03:45.054Z,7.06
2022-10-11T05:04:45.058Z,6.88
2022-10-11T05:05:45.067Z,6.95
2022-10-11T05:06:45.048Z,6.87
2022-10-11T05:07:45.030Z,6.87
2022-10-11T05:08:45.031Z,6.88
2022-10-11T05:09:45.022Z,6.82
2022-10-11T05:10:45.040Z,6.84
2022-10-11T05:11:45.025Z,6.79
2022-10-11T05:12:45.005Z,6.82
2022-10-11T05:13:45.000Z,6.78
2022-10-11T05:14:44.996Z,6.84
2022-10-11T05:15:44.989Z,6.77
2022-10-11T05:16:45.005Z,6.72
2022-10-11T05:17:44.987Z,6.70
2022-10-11T05:18:44.966Z,6.54
2022-10-11T05:19:44.969Z,6.57
2022-10-11T05:20:44.957Z,6.63
2022-10-11T05:21:44.991Z,6.67
2022-10-11T05:22:44.950Z,6.63
2022-10-11T05:23:44.944Z,6.64
2022-10-11T05:24:44.944Z,6.64
2022-10-11T05:25:44.927Z,6.66
2022-10-11T05:26:44.915Z,6.60
2022-10-11T05:27:44.930Z,6.56
2022-10-11T05:28:44.985Z,6.57
2022-10-11T05:29:44.888Z,6.52
2022-10-11T05:30:44.894Z,6.57
2022-10-11T05:31:44.875Z,6.60
2022-10-11T05:32:44.884Z,6.62
2022-10-11T05:33:44.887Z,6.56
2022-10-11T05:34:44.866Z,6.60
2022-10-11T05:35:44.940Z,6.72
2022-10-11T05:36:44.858Z,6.64
2022-10-11T05:37:44.849Z,6.77
2022-10-11T05:38:44.843Z,6.79
2022-10-11T05:39:44.844Z,6.78
2022-10-11T05:40:44.823Z,6.92
2022-10-11T05:41:44.814Z,6.78
2022-10-11T05:42:44.834Z,6.87
2022-10-11T05:43:44.813Z,6.78
2022-10-11T05:44:44.809Z,6.78
2022-10-11T05:45:44.812Z,6.64
2022-10-11T05:46:44.789Z,6.74
2022-10-11T05:47:44.784Z,6.81
2022-10-11T05:48:44.797Z,6.78
2022-10-11T05:49:44.763Z,6.87
2022-10-11T05:50:44.813Z,6.84
2022-10-11T05:51:44.762Z,6.77
2022-10-11T05:52:44.747Z,6.88
2022-10-11T05:53:44.739Z,6.85
2022-10-11T05:54:44.732Z,6.85
2022-10-11T05:55:44.744Z,6.88
2022-10-11T05:56:44.750Z,6.97
2022-10-11T05:57:44.709Z,6.97
2022-10-11T05:58:44.708Z,6.87
2022-10-11T05:59:44.718Z,6.95
2022-10-11T06:00:44.705Z,6.99
2022-10-11T06:01:44.773Z,7.02
2022-10-11T06:02:44.699Z,7.03
2022-10-11T06:03:44.679Z,7.02
2022-10-11T06:04:44.683Z,7.02
2022-10-11T06:05:44.670Z,7.05
2022-10-11T06:06:44.657Z,7.07
2022-10-11T06:07:44.683Z,7.13
2022-10-11T06:08:44.646Z,7.03
2022-10-11T06:09:44.666Z,7.11
2022-10-11T06:10:44.635Z,7.15
2022-10-11T06:11:44.621Z,7.15
2022-10-11T06:12:44.627Z,7.25
2022-10-11T06:13:44.616Z,7.32
2022-10-11T06:14:44.603Z,7.24
2022-10-11T06:15:44.622Z,7.29
2022-10-11T06:16:44.603Z,7.39
2022-10-11T06:17:44.596Z,7.58
2022-10-11T06:18:44.587Z,7.66
2022-10-11T06:19:44.577Z,7.72
2022-10-11T06:20:44.591Z,7.70
2022-10-11T06:21:44.572Z,7.85
2022-10-11T06:22:44.562Z,7.76
2022-10-11T06:23:44.555Z,7.75
2022-10-11T06:24:44.587Z,7.76
2022-10-11T06:25:44.568Z,7.90
2022-10-11T06:26:44.545Z,7.91
2022-10-11T06:27:44.538Z,7.88
2022-10-11T06:28:44.581Z,7.95
2022-10-11T06:29:44.516Z,8.00
2022-10-11T06:30:44.514Z,8.10
2022-10-11T06:31:44.526Z,8.12
2022-10-11T06:32:44.500Z,8.27
2022-10-11T06:33:44.528Z,8.42
2022-10-11T06:34:44.538Z,8.52
2022-10-11T06:35:44.500Z,8.55
2022-10-11T06:36:44.486Z,8.53
2022-10-11T06:37:44.474Z,8.60
2022-10-11T06:38:45.342Z,8.58
2022-10-11T06:39:44.453Z,8.42
2022-10-11T06:40:44.442Z,8.53
2022-10-11T06:41:44.433Z,8.53
2022-10-11T06:42:44.423Z,8.58
2022-10-11T06:43:44.425Z,8.92
2022-10-11T06:44:44.427Z,9.16
2022-10-11T06:45:44.405Z,9.62
2022-10-11T06:46:44.403Z,10.17
2022-10-11T06:47:44.414Z,10.99
2022-10-11T06:48:44.407Z,11.43
2022-10-11T06:49:44.385Z,11.86
2022-10-11T06:51:00.318Z,12.02
2022-10-11T06:51:45.374Z,11.97
2022-10-11T06:52:44.367Z,11.91
2022-10-11T06:53:44.358Z,12.24
2022-10-11T06:54:45.206Z,12.83
2022-10-11T06:55:44.338Z,13.42
2022-10-11T06:56:44.363Z,14.26
2022-10-11T06:57:44.325Z,14.91
2022-10-11T06:58:44.321Z,15.42
2022-10-11T06:59:44.314Z,15.92
2022-10-11T07:00:44.364Z,16.38
2022-10-11T07:01:44.308Z,16.96
2022-10-11T07:02:44.319Z,17.30
2022-10-11T07:03:44.287Z,17.63
2022-10-11T07:04:44.284Z,17.86
2022-10-11T07:05:44.271Z,18.31
2022-10-11T07:06:44.272Z,17.90
2022-10-11T07:07:44.289Z,17.68
2022-10-11T07:08:44.254Z,17.38
2022-10-11T07:09:44.242Z,17.38
2022-10-11T07:10:44.237Z,16.93
2022-10-11T07:11:44.226Z,16.56
2022-10-11T07:12:44.212Z,15.64
2022-10-11T07:13:44.228Z,14.97
2022-10-11T07:14:44.211Z,14.72
2022-10-11T07:15:44.190Z,14.43
2022-10-11T07:16:44.202Z,14.40
2022-10-11T07:17:44.174Z,14.43
2022-10-11T07:18:44.187Z,14.48
2022-10-11T07:19:44.165Z,14.30
2022-10-11T07:20:44.184Z,14.23
2022-10-11T07:21:44.140Z,14.18
2022-10-11T07:22:44.149Z,14.30
2022-10-11T07:23:44.121Z,14.58
2022-10-11T07:24:44.128Z,14.86
2022-10-11T07:25:44.145Z,15.27
2022-10-11T07:26:44.130Z,15.65
2022-10-11T07:27:44.104Z,16.00
2022-10-11T07:28:44.144Z,16.41
2022-10-11T07:29:44.083Z,16.50
2022-10-11T07:30:44.065Z,16.71
2022-10-11T07:31:44.068Z,16.86
2022-10-11T07:32:44.091Z,17.08
2022-10-11T07:33:44.049Z,17.51
2022-10-11T07:34:44.037Z,17.80
2022-10-11T07:35:48.200Z,18.25
2022-10-11T07:36:44.011Z,17.65
2022-10-11T07:37:43.999Z,17.08
2022-10-11T07:38:44.034Z,17.46
2022-10-11T07:39:43.987Z,17.89
2022-10-11T07:40:43.976Z,18.08
2022-10-11T07:41:46.060Z,18.65
2022-10-11T07:42:43.964Z,19.39
2022-10-11T07:43:44.001Z,20.07
2022-10-11T07:44:43.954Z,20.40
2022-10-11T07:45:43.934Z,20.77
2022-10-11T07:46:43.924Z,21.00
2022-10-11T07:47:43.916Z,20.59
2022-10-11T07:48:43.915Z,19.33
2022-10-11T07:49:43.925Z,18.53
2022-10-11T07:50:43.899Z,18.34
2022-10-11T07:51:43.905Z,18.53
2022-10-11T07:52:43.885Z,19.29
2022-10-11T07:53:43.883Z,19.84
2022-10-11T07:54:43.888Z,20.48
2022-10-11T07:55:43.859Z,21.09
2022-10-11T07:56:43.878Z,21.39
2022-10-11T07:57:43.846Z,21.29
2022-10-11T07:58:43.842Z,21.46
2022-10-11T07:59:47.852Z,21.67
2022-10-11T08:00:43.834Z,22.23
2022-10-11T08:01:43.826Z,22.63
2022-10-11T08:02:43.805Z,22.60
2022-10-11T08:03:43.818Z,22.94
2022-10-11T08:04:43.786Z,23.17
2022-10-11T08:05:43.778Z,23.23
2022-10-11T08:06:43.772Z,23.44
2022-10-11T08:07:43.792Z,23.56
2022-10-11T08:08:43.757Z,23.83
2022-10-11T08:09:43.760Z,23.74
2022-10-11T08:10:43.747Z,23.78
2022-10-11T08:11:43.733Z,24.02
2022-10-11T08:12:43.724Z,24.53
2022-10-11T08:13:43.740Z,24.74
2022-10-11T08:14:43.732Z,24.92
2022-10-11T08:15:43.704Z,25.21
2022-10-11T08:16:43.694Z,25.54
2022-10-11T08:17:43.756Z,25.65
2022-10-11T08:18:43.707Z,25.73
2022-10-11T08:19:43.680Z,26.37
2022-10-11T08:20:43.667Z,26.41
2022-10-11T08:21:43.665Z,26.31
2022-10-11T08:22:43.688Z,26.63
2022-10-11T08:23:43.652Z,26.65
2022-10-11T08:24:43.661Z,26.53
2022-10-11T08:25:43.654Z,26.70
2022-10-11T08:26:43.630Z,26.59
2022-10-11T08:27:43.626Z,27.32
2022-10-11T08:28:43.653Z,26.36
2022-10-11T08:29:43.638Z,26.03
2022-10-11T08:30:43.609Z,26.33
2022-10-11T08:31:43.592Z,26.38
2022-10-11T08:32:43.582Z,26.29
2022-10-11T08:33:43.588Z,26.40
2022-10-11T08:34:43.609Z,26.10
2022-10-11T08:35:43.571Z,25.75
2022-10-11T08:36:43.592Z,25.55
2022-10-11T08:37:43.551Z,25.22
2022-10-11T08:38:43.549Z,25.14
2022-10-11T08:39:43.573Z,25.75
2022-10-11T08:40:43.539Z,25.88
2022-10-11T08:41:43.549Z,26.21
2022-10-11T08:42:43.561Z,26.59
2022-10-11T08:43:43.535Z,26.65
2022-10-11T08:45:09.366Z,26.77
2022-10-11T08:45:44.491Z,26.95
2022-10-11T08:46:43.489Z,27.42
2022-10-11T08:47:43.497Z,26.93
2022-10-11T08:48:43.503Z,26.56
2022-10-11T08:49:43.469Z,26.45
2022-10-11T08:50:43.454Z,26.93
2022-10-11T08:51:43.445Z,27.32
2022-10-11T08:52:43.448Z,27.32
2022-10-11T08:53:43.432Z,27.27
2022-10-11T08:54:43.441Z,27.25
2022-10-11T08:55:43.415Z,26.71
2022-10-11T08:56:43.415Z,26.78
2022-10-11T08:57:43.413Z,27.21
2022-10-11T08:58:43.422Z,27.54
2022-10-11T08:59:43.407Z,28.04
2022-10-11T09:00:43.384Z,28.04
2022-10-11T09:01:43.461Z,28.08
2022-10-11T09:03:06.991Z,28.38
2022-10-11T09:03:44.376Z,27.98
2022-10-11T09:04:43.355Z,27.67
2022-10-11T09:05:43.343Z,27.35
2022-10-11T09:06:43.332Z,27.85
2022-10-11T09:07:43.324Z,28.07
2022-10-11T09:08:43.322Z,28.07
2022-10-11T09:09:43.331Z,27.85
2022-10-11T09:10:43.330Z,27.89
2022-10-11T09:11:43.295Z,28.41
2022-10-11T09:12:43.296Z,28.05
2022-10-11T09:13:43.281Z,28.00
2022-10-11T09:14:43.282Z,27.92
2022-10-11T09:15:43.300Z,27.54
2022-10-11T09:16:43.270Z,27.67
2022-10-11T09:17:43.260Z,27.52
2022-10-11T09:18:43.279Z,27.68
2022-10-11T09:19:43.238Z,27.83
2022-10-11T09:20:43.236Z,27.93
2022-10-11T09:21:43.247Z,27.58
2022-10-11T09:22:43.221Z,26.95
2022-10-11T09:23:43.219Z,27.39
2022-10-11T09:24:43.235Z,27.49
2022-10-11T09:25:43.199Z,27.80
2022-10-11T09:26:43.208Z,28.07
2022-10-11T09:28:01.799Z,28.32
2022-10-11T09:28:44.249Z,28.62
2022-10-11T09:29:43.192Z,28.96
2022-10-11T09:30:43.195Z,29.35
2022-10-11T09:31:43.168Z,29.44
2022-10-11T09:32:43.156Z,29.51
2022-10-11T09:33:43.138Z,29.61
2022-10-11T09:34:43.146Z,29.73
2022-10-11T09:35:43.143Z,30.03
2022-10-11T09:36:43.170Z,29.79
2022-10-11T09:37:43.123Z,29.78
2022-10-11T09:38:43.111Z,29.69
2022-10-11T09:39:43.104Z,29.97
2022-10-11T09:40:43.095Z,29.39
2022-10-11T09:41:43.098Z,28.79
2022-10-11T09:42:43.109Z,28.63
2022-10-11T09:43:43.070Z,28.94
2022-10-11T09:44:43.070Z,28.89
2022-10-11T09:45:48.257Z,29.10
2022-10-11T09:46:44.094Z,28.88
2022-10-11T09:47:43.054Z,28.38
2022-10-11T09:48:43.057Z,27.64
2022-10-11T09:49:43.061Z,27.39
2022-10-11T09:50:43.028Z,27.17
2022-10-11T09:51:43.030Z,27.02
2022-10-11T09:52:43.032Z,26.43
2022-10-11T09:53:43.021Z,25.75
2022-10-11T09:54:43.047Z,25.78
2022-10-11T09:55:42.993Z,25.65
2022-10-11T09:56:42.994Z,25.80
2022-10-11T09:57:42.972Z,25.31
2022-10-11T09:58:42.993Z,24.96
2022-10-11T09:59:42.967Z,24.69
2022-10-11T10:00:42.975Z,24.38
2022-10-11T10:01:43.002Z,23.96
2022-10-11T10:02:42.941Z,23.39
2022-10-11T10:03:42.936Z,22.88
2022-10-11T10:04:42.927Z,22.85
2022-10-11T10:05:42.938Z,22.62
2022-10-11T10:06:42.931Z,22.47
2022-10-11T10:07:42.911Z,22.38
2022-10-11T10:08:42.895Z,21.82
2022-10-11T10:09:42.912Z,21.54
2022-10-11T10:10:42.887Z,21.15
2022-10-11T10:11:42.884Z,20.74
2022-10-11T10:12:42.879Z,20.50
2022-10-11T10:13:42.865Z,20.18
2022-10-11T10:14:42.862Z,20.00
2022-10-11T10:15:42.893Z,19.94
2022-10-11T10:16:42.881Z,20.06
2022-10-11T10:17:42.828Z,20.10
2022-10-11T10:18:42.826Z,20.09
2022-10-11T10:19:45.255Z,19.84
2022-10-11T10:20:42.846Z,19.81
2022-10-11T10:21:42.823Z,19.91
2022-10-11T10:22:42.793Z,19.79
2022-10-11T10:23:42.825Z,19.63
2022-10-11T10:24:42.789Z,19.41
2022-10-11T10:25:43.789Z,19.49
2022-10-11T10:26:42.795Z,19.55
2022-10-11T10:27:42.760Z,19.41
2022-10-11T10:28:42.804Z,19.29
2022-10-11T10:29:42.749Z,19.19
2022-10-11T10:30:42.747Z,19.09
2022-10-11T10:32:12.429Z,19.12
2022-10-11T10:32:48.236Z,19.15
2022-10-11T10:33:42.715Z,19.14
2022-10-11T10:34:42.713Z,18.90
2022-10-11T10:35:42.701Z,18.93
2022-10-11T10:36:42.705Z,18.80
2022-10-11T10:37:42.700Z,18.73
2022-10-11T10:38:42.671Z,18.52
2022-10-11T10:39:42.666Z,18.40
2022-10-11T10:40:42.656Z,18.18
2022-10-11T10:41:42.658Z,18.15
2022-10-11T10:42:42.645Z,18.44
2022-10-11T10:43:42.660Z,18.52
2022-10-11T10:44:42.659Z,18.59
2022-10-11T10:45:42.630Z,18.65
2022-10-11T10:46:42.621Z,18.80
2022-10-11T10:47:42.614Z,18.90
2022-10-11T10:49:23.163Z,18.75
2022-10-11T10:49:53.606Z,18.68
2022-10-11T10:50:43.616Z,18.60
2022-10-11T10:51:42.588Z,18.53
2022-10-11T10:52:42.579Z,18.49
2022-10-11T10:53:42.594Z,18.88
2022-10-11T10:54:42.566Z,19.19
2022-10-11T10:55:42.557Z,19.31
2022-10-11T10:56:42.566Z,19.41
2022-10-11T10:57:42.573Z,19.51
2022-10-11T10:58:42.527Z,19.27
2022-10-11T10:59:42.523Z,19.08
2022-10-11T11:00:42.516Z,19.02
2022-10-11T11:01:42.553Z,19.14
2022-10-11T11:02:42.556Z,19.31
2022-10-11T11:03:42.514Z,19.47
2022-10-11T11:04:42.492Z,19.41
2022-10-11T11:05:42.500Z,19.62
2022-10-11T11:06:42.474Z,19.71
2022-10-11T11:07:42.461Z,19.95
2022-10-11T11:09:53.315Z,20.48
2022-10-11T11:10:53.355Z,20.50
2022-10-11T11:11:53.331Z,20.31
2022-10-11T11:12:53.349Z,20.14
2022-10-11T11:13:53.326Z,20.21
2022-10-11T11:14:53.313Z,20.40
2022-10-11T11:15:53.319Z,20.32
2022-10-11T11:16:53.323Z,20.19
2022-10-11T11:17:53.288Z,20.03
2022-10-11T11:18:53.283Z,20.00
2022-10-11T11:19:53.272Z,19.96
2022-10-11T11:20:53.270Z,19.94
2022-10-11T11:21:53.255Z,20.03
2022-10-11T11:22:53.266Z,20.07
2022-10-11T11:23:53.267Z,20.06
2022-10-11T11:24:53.247Z,20.16
2022-10-11T11:25:53.251Z,20.11
2022-10-11T11:26:53.239Z,20.03
2022-10-11T11:27:53.230Z,20.16
2022-10-11T11:28:53.269Z,20.18
2022-10-11T11:29:55.549Z,20.29
2022-10-11T11:30:53.203Z,19.96
2022-10-11T11:31:53.217Z,19.82
2022-10-11T11:32:53.254Z,20.04
2022-10-11T11:33:53.175Z,20.11
2022-10-11T11:34:53.167Z,20.13
2022-10-11T11:35:53.177Z,19.84
2022-10-11T11:36:53.148Z,19.86
2022-10-11T11:38:00.216Z,19.84
2022-10-11T11:38:54.181Z,19.76
2022-10-11T11:39:53.137Z,19.62
2022-10-11T11:40:53.118Z,19.39
2022-10-11T11:41:53.115Z,19.31
2022-10-11T11:42:53.098Z,19.29
2022-10-11T11:43:53.099Z,19.16
2022-10-11T11:44:53.138Z,19.15
2022-10-11T11:45:53.083Z,19.26
2022-10-11T11:46:53.080Z,19.40
2022-10-11T11:47:53.064Z,19.34
2022-10-11T11:48:53.057Z,19.47
2022-10-11T11:49:53.056Z,19.54
2022-10-11T11:50:53.066Z,19.67
2022-10-11T11:51:53.066Z,19.82
2022-10-11T11:52:53.063Z,19.85
2022-10-11T11:53:53.022Z,19.73
2022-10-11T11:54:53.030Z,19.52
2022-10-11T11:55:53.009Z,19.36
2022-10-11T11:56:53.006Z,19.14
2022-10-11T11:57:53.000Z,19.09
2022-10-11T11:58:53.009Z,19.24
2022-10-11T11:59:52.983Z,19.18
2022-10-11T12:00:52.990Z,19.26
2022-10-11T12:01:52.997Z,19.22
2022-10-11T12:02:52.974Z,19.26
2022-10-11T12:03:52.975Z,19.15
2022-10-11T12:04:52.940Z,18.98
2022-10-11T12:05:52.930Z,18.81
2022-10-11T12:07:15.055Z,18.80
2022-10-11T12:07:53.920Z,18.80
2022-10-11T12:08:52.915Z,18.96
2022-10-11T12:09:52.968Z,18.84
2022-10-11T12:10:52.896Z,18.92
2022-10-11T12:11:52.896Z,19.00
2022-10-11T12:12:52.893Z,19.07
2022-10-11T12:13:52.884Z,19.08
2022-10-11T12:14:52.876Z,18.98
2022-10-11T12:15:52.898Z,18.90
2022-10-11T12:16:52.868Z,18.88
2022-10-11T12:17:52.858Z,18.93
2022-10-11T12:18:52.843Z,18.75
2022-10-11T12:19:52.832Z,18.65
2022-10-11T12:20:52.825Z,18.55
2022-10-11T12:21:52.846Z,18.53
2022-10-11T12:22:52.831Z,18.44
2022-10-11T12:23:52.791Z,18.41
2022-10-11T12:24:52.800Z,18.43
2022-10-11T12:25:52.788Z,18.53
2022-10-11T12:26:52.791Z,18.75
2022-10-11T12:27:52.810Z,18.66
2022-10-11T12:28:52.826Z,18.59
2022-10-11T12:29:52.763Z,18.49
2022-10-11T12:30:52.770Z,18.26
2022-10-11T12:31:52.735Z,18.11
2022-10-11T12:32:52.735Z,18.01
2022-10-11T12:33:52.714Z,17.85
2022-10-11T12:34:52.743Z,17.79
2022-10-11T12:35:52.714Z,17.76
2022-10-11T12:36:52.695Z,17.76
2022-10-11T12:37:52.727Z,17.90
2022-10-11T12:38:52.714Z,17.89
2022-10-11T12:39:52.686Z,17.97
2022-10-11T12:40:52.674Z,17.74
2022-10-11T12:41:52.661Z,17.85
2022-10-11T12:42:52.714Z,18.03
2022-10-11T12:43:52.640Z,17.97
2022-10-11T12:44:52.638Z,17.86
2022-10-11T12:45:52.650Z,17.85
2022-10-11T12:46:52.622Z,17.94
2022-10-11T12:47:52.614Z,18.07
2022-10-11T12:48:52.640Z,18.29
2022-10-11T12:49:52.592Z,18.40
2022-10-11T12:50:52.597Z,18.08
2022-10-11T12:51:52.584Z,17.86
2022-10-11T12:52:52.575Z,17.49
2022-10-11T12:54:08.216Z,17.20
2022-10-11T12:54:53.572Z,17.19
2022-10-11T12:55:52.574Z,17.34
2022-10-11T12:56:52.555Z,17.38
2022-10-11T12:57:52.534Z,17.49
2022-10-11T12:58:52.544Z,17.60
2022-10-11T12:59:52.540Z,17.54
2022-10-11T13:00:52.604Z,17.59
2022-10-11T13:01:52.507Z,17.54
2022-10-11T13:02:52.495Z,17.65